Mineral Point, Missouri
Current Conditions -  °F | °C
As of 7:35 PM on Monday 20 Oct 2014 (Local Time) from KFAM Reporting Station
Clear Clear  
Wind Chill: 64°   Ceiling: Unl
Heat Index: 64°   Visibility: 10mi
Dew Point: 45°   Wind: 6mph
Humidity: 49%   Direction: 330°NNW
Pressure: 30.02"   Gusts: NA
Location:  37.94°N, 90.72°W
Report Text: KFAM 210035Z AUTO 33005KT 10SM CLR 18/07 A3002 RMK AO1
Loading
Personal Weather Stations






























Interactive Weather Map New forecast layout! Learn more

10-Day Weather Forecast

Advertisements
Track Severe Weather on mobile